Time;durP1;ratioP1;P1;durP2;ratioP2;P2;SDS_P1;SDS_P2;PMS_P1;PMS_P2;Temp;Humidity;BMP_temperature;BMP_pressure;BME280_temperature;BME280_humidity;BME280_pressure;Samples;Min_cycle;Max_cycle;Signal;HPM_P1;HPM_P2
2022/02/03 00:02:38;;;;;;;58.72;29.30;;;8.60;92.80;;;;;;6189244;23;20023;-78
2022/02/03 00:05:12;;;;;;;61.45;27.73;;;8.70;92.90;;;;;;6190206;23;20025;-81
2022/02/03 00:07:57;;;;;;;60.63;27.75;;;8.70;93.10;;;;;;6143032;23;20028;-78
2022/02/03 00:10:59;;;;;;;53.97;26.42;;;8.70;93.30;;;;;;6170164;23;20053;-78
2022/02/03 00:24:26;;;;;;;54.78;26.98;;;8.80;93.50;;;;;;6192192;23;20025;-80
2022/02/03 00:27:08;;;;;;;58.60;27.55;;;8.80;93.60;;;;;;6167086;23;20025;-86
2022/02/03 00:29:54;;;;;;;59.42;27.40;;;8.90;94.10;;;;;;6166920;23;20076;-78
2022/02/03 00:32:50;;;;;;;56.42;27.45;;;8.90;93.70;;;;;;6144067;23;20017;-79
2022/02/03 00:49:00;;;;;;;61.00;29.15;;;9.00;93.80;;;;;;6191180;23;20077;-80
2022/02/03 00:51:27;;;;;;;65.72;31.23;;;8.90;93.80;;;;;;6143593;23;20024;-81
2022/02/03 00:53:55;;;;;;;63.05;31.15;;;8.90;93.90;;;;;;6164965;23;20020;-79
2022/02/03 00:56:26;;;;;;;64.78;31.63;;;9.00;93.90;;;;;;6140723;23;20021;-79
2022/02/03 00:59:07;;;;;;;65.10;30.25;;;9.00;94.00;;;;;;6140287;23;20037;-79
2022/02/03 01:01:40;;;;;;;68.53;32.53;;;9.00;94.10;;;;;;6117033;23;20017;-79
2022/02/03 01:04:11;;;;;;;69.60;32.60;;;9.00;94.10;;;;;;6139594;23;20079;-80
2022/02/03 01:06:43;;;;;;;70.63;31.65;;;9.00;94.10;;;;;;6163279;23;20018;-80
2022/02/03 01:09:09;;;;;;;79.05;35.97;;;9.00;94.10;;;;;;6165187;23;20038;-80
2022/02/03 01:11:43;;;;;;;70.20;33.50;;;9.00;94.10;;;;;;6163745;23;20017;-80
2022/02/03 01:14:18;;;;;;;73.35;34.50;;;9.00;94.10;;;;;;6140834;23;20052;-82
2022/02/03 01:43:54;;;;;;;83.22;38.80;;;9.10;94.20;;;;;;6164956;23;20088;-82
2022/02/03 01:46:28;;;;;;;70.53;36.20;;;9.10;94.20;;;;;;6116967;23;20079;-82
2022/02/03 01:49:10;;;;;;;68.85;35.72;;;9.10;94.20;;;;;;6117667;23;20025;-82
2022/02/03 01:51:42;;;;;;;85.50;39.65;;;9.20;94.20;;;;;;6143959;23;20051;-82
2022/02/03 01:54:08;;;;;;;;;;;9.20;94.10;;;;;;6142168;23;20067;-82
2022/02/03 01:56:41;;;;;;;78.93;36.03;;;9.20;94.40;;;;;;6140648;23;19951;-83
2022/02/03 01:59:19;;;;;;;80.00;40.13;;;9.20;94.10;;;;;;6140068;23;20029;-82
2022/02/03 02:01:44;;;;;;;77.22;37.78;;;9.20;94.20;;;;;;6141458;23;20013;-83
2022/02/03 02:04:38;;;;;;;76.28;39.17;;;9.20;94.30;;;;;;6140160;23;20044;-82
2022/02/03 02:07:20;;;;;;;76.32;37.20;;;9.20;94.30;;;;;;6164756;23;20024;-83
2022/02/03 02:10:06;;;;;;;77.68;37.75;;;9.20;94.20;;;;;;6139767;23;20024;-83
2022/02/03 02:12:44;;;;;;;74.72;39.95;;;9.20;94.20;;;;;;6117392;23;20021;-81
2022/02/03 02:43:06;;;;;;;86.88;45.20;;;9.20;94.50;;;;;;6167478;23;20036;-82
2022/02/03 02:45:59;;;;;;;93.95;43.58;;;9.20;94.50;;;;;;6140725;23;20019;-83
2022/02/03 02:48:33;;;;;;;77.18;40.88;;;9.20;94.60;;;;;;6165405;23;20024;-83
2022/02/03 02:51:08;;;;;;;73.78;41.75;;;9.20;94.50;;;;;;6116707;23;20404;-83
2022/02/03 02:54:11;;;;;;;81.38;41.90;;;9.20;94.50;;;;;;6167346;23;20064;-85
2022/02/03 02:56:51;;;;;;;85.18;44.22;;;9.20;94.50;;;;;;6144173;23;20021;-83
2022/02/03 03:32:50;;;;;;;86.28;47.78;;;9.20;94.50;;;;;;6146750;23;20017;-83
2022/02/03 03:35:18;;;;;;;88.80;47.72;;;9.20;94.60;;;;;;6144854;23;20024;-83
2022/02/03 03:37:48;;;;;;;89.82;46.33;;;9.20;94.50;;;;;;6143498;23;20025;-83
2022/02/03 03:40:15;;;;;;;92.70;48.55;;;9.20;94.50;;;;;;6117966;23;20155;-83
2022/02/03 03:43:02;;;;;;;90.35;47.72;;;9.20;94.50;;;;;;6165482;23;20061;-82
2022/02/03 03:45:30;;;;;;;88.80;50.25;;;9.20;94.60;;;;;;6115846;23;20032;-82
2022/02/03 03:47:58;;;;;;;87.57;47.00;;;9.20;94.50;;;;;;6141521;23;20100;-83
2022/02/03 03:50:24;;;;;;;89.55;51.58;;;9.20;94.50;;;;;;6141391;23;20029;-82
2022/02/03 03:52:57;;;;;;;83.90;47.85;;;9.20;94.50;;;;;;6140909;23;20017;-83
2022/02/03 03:55:36;;;;;;;;;;;9.20;94.50;;;;;;6190729;23;20441;-82
2022/02/03 03:58:24;;;;;;;80.85;44.08;;;9.20;94.60;;;;;;6143801;23;19916;-84
2022/02/03 05:03:07;;;;;;;92.80;47.72;;;9.10;94.50;;;;;;6162336;23;20482;-83
2022/02/03 05:09:15;;;;;;;98.03;48.83;;;9.10;94.50;;;;;;6140722;23;20025;-82
2022/02/03 05:44:48;;;;;;;119.50;56.22;;;9.10;94.60;;;;;;6142306;23;20069;-82
2022/02/03 05:50:02;;;;;;;114.00;55.17;;;9.10;94.60;;;;;;6139943;23;20025;-81
2022/02/03 06:05:34;;;;;;;121.13;54.85;;;9.10;94.60;;;;;;6165621;23;20059;-82
2022/02/03 06:08:18;;;;;;;119.22;56.33;;;9.10;94.70;;;;;;6118236;23;20060;-82
2022/02/03 06:13:40;;;;;;;124.72;57.22;;;9.10;94.60;;;;;;6143637;23;20025;-83
2022/02/03 06:21:39;;;;;;;119.67;57.00;;;9.10;94.60;;;;;;6141875;23;20017;-82
2022/02/03 06:24:18;;;;;;;115.90;52.20;;;9.00;94.60;;;;;;6119072;23;20029;-82
2022/02/03 06:29:32;;;;;;;113.57;52.25;;;9.00;94.60;;;;;;6144410;23;20052;-82
2022/02/03 06:31:58;;;;;;;102.60;49.45;;;9.00;94.60;;;;;;6191969;23;20309;-83
2022/02/03 06:34:24;;;;;;;101.32;48.72;;;9.00;94.60;;;;;;6168114;23;20057;-81
2022/02/03 06:36:51;;;;;;;94.07;45.60;;;9.00;94.60;;;;;;6191028;23;20036;-82
2022/02/03 06:39:18;;;;;;;94.07;45.25;;;9.00;94.90;;;;;;6192692;23;20021;-83
2022/02/03 06:41:44;;;;;;;95.95;46.38;;;9.00;94.60;;;;;;6164934;23;20021;-82
2022/02/03 06:44:12;;;;;;;85.47;43.17;;;9.00;94.60;;;;;;6140322;23;20079;-82
2022/02/03 06:46:40;;;;;;;95.82;44.47;;;9.00;94.60;;;;;;6164965;23;20017;-83
2022/02/03 06:49:37;;;;;;;85.88;41.03;;;9.00;94.60;;;;;;6164904;23;20021;-82
2022/02/03 06:51:59;;;;;;;83.60;41.10;;;8.90;94.50;;;;;;6142390;23;20029;-83
2022/02/03 06:54:39;;;;;;;84.50;38.80;;;9.00;94.50;;;;;;6143665;23;20335;-84
2022/02/03 06:57:11;;;;;;;82.60;38.72;;;9.00;94.50;;;;;;6144619;23;20101;-82
2022/02/03 06:59:47;;;;;;;90.00;40.05;;;8.90;94.40;;;;;;6142740;23;20024;-83
2022/02/03 07:02:12;;;;;;;74.65;36.88;;;8.90;94.40;;;;;;6191354;23;20040;-82
2022/02/03 07:04:43;;;;;;;79.70;36.00;;;8.90;94.40;;;;;;6165169;23;20021;-82
2022/02/03 07:07:09;;;;;;;68.13;35.08;;;8.90;94.40;;;;;;6143677;23;20048;-83
2022/02/03 07:09:37;;;;;;;67.75;33.78;;;8.90;94.40;;;;;;6143142;23;20411;-82
2022/02/03 07:12:06;;;;;;;64.50;33.60;;;8.90;94.40;;;;;;6142174;23;20100;-82
2022/02/03 07:14:32;;;;;;;66.57;31.83;;;8.90;94.40;;;;;;6142972;23;20016;-82
2022/02/03 07:17:01;;;;;;;64.97;33.33;;;8.90;94.70;;;;;;6166211;23;20024;-81
2022/02/03 07:19:27;;;;;;;69.82;32.95;;;8.90;94.40;;;;;;6143503;23;20017;-82
2022/02/03 07:21:53;;;;;;;69.30;31.45;;;8.90;94.40;;;;;;6115395;23;20024;-80
2022/02/03 07:24:18;;;;;;;62.75;32.22;;;8.90;94.40;;;;;;6165224;23;20013;-77
2022/02/03 07:26:44;;;;;;;63.67;32.78;;;8.90;94.40;;;;;;6191870;23;20452;-79
2022/02/03 07:29:11;;;;;;;66.07;31.75;;;8.90;94.40;;;;;;6141239;23;20044;-80
2022/02/03 07:31:37;;;;;;;62.25;32.05;;;8.90;94.30;;;;;;6167263;23;20024;-91
2022/02/03 07:34:11;;;;;;;64.63;31.42;;;8.90;94.30;;;;;;6149615;23;20463;-90
2022/02/03 07:36:37;;;;;;;60.90;31.23;;;8.90;94.30;;;;;;6122341;23;20040;-90
2022/02/03 07:39:03;;;;;;;58.60;31.02;;;8.90;94.30;;;;;;6169487;23;20017;-85
2022/02/03 07:41:30;;;;;;;55.78;30.40;;;8.90;94.30;;;;;;6144409;23;20057;-84
2022/02/03 07:43:55;;;;;;;52.20;27.30;;;8.90;94.30;;;;;;6169932;23;20024;-85
2022/02/03 07:46:21;;;;;;;59.40;28.55;;;8.90;94.30;;;;;;6145219;23;20017;-86
2022/02/03 07:48:49;;;;;;;54.50;28.10;;;8.90;94.30;;;;;;6143515;23;20017;-84
2022/02/03 07:51:16;;;;;;;53.45;27.92;;;8.90;94.30;;;;;;6169722;23;20096;-85
2022/02/03 07:53:45;;;;;;;55.90;26.92;;;8.90;94.30;;;;;;6170655;23;20335;-85
2022/02/03 07:56:11;;;;;;;46.65;24.67;;;8.90;94.30;;;;;;6144632;23;20024;-85
2022/02/03 07:58:36;;;;;;;50.33;26.13;;;8.90;94.20;;;;;;6145146;23;20116;-85
2022/02/03 08:01:02;;;;;;;50.72;23.77;;;8.90;94.20;;;;;;6169563;23;20017;-85
2022/02/03 08:03:28;;;;;;;48.97;23.40;;;8.90;94.20;;;;;;6145366;23;20081;-85
2022/02/03 08:06:02;;;;;;;46.28;24.52;;;8.90;94.20;;;;;;6145448;23;20099;-86
2022/02/03 08:08:42;;;;;;;46.92;22.08;;;8.90;94.10;;;;;;6196164;23;20069;-85
2022/02/03 08:11:12;;;;;;;49.35;22.50;;;8.90;94.10;;;;;;6147889;23;20013;-84
2022/02/03 08:13:49;;;;;;;45.60;21.63;;;8.90;94.10;;;;;;6145362;23;20017;-86
2022/02/03 08:16:27;;;;;;;40.70;20.50;;;8.90;94.10;;;;;;6146885;23;20017;-84
2022/02/03 08:19:02;;;;;;;40.85;20.77;;;8.90;94.00;;;;;;6145767;23;20444;-86
2022/02/03 08:21:27;;;;;;;46.58;22.75;;;8.90;94.00;;;;;;6117601;23;20109;-85
2022/02/03 08:24:15;;;;;;;47.28;21.13;;;8.90;93.90;;;;;;6140175;23;20032;-84
2022/02/03 08:29:34;;;;;;;44.15;20.58;;;8.90;93.90;;;;;;6145287;23;20024;-84
2022/02/03 08:32:18;;;;;;;45.55;22.13;;;8.90;93.90;;;;;;6148111;23;20056;-85
2022/02/03 08:34:57;;;;;;;44.17;19.23;;;8.90;93.80;;;;;;6149190;23;20021;-86
2022/02/03 08:37:30;;;;;;;47.50;21.73;;;8.90;93.70;;;;;;6122617;23;20045;-86
2022/02/03 08:40:13;;;;;;;50.35;22.10;;;8.90;93.70;;;;;;6123022;23;20021;-86
2022/02/03 08:42:39;;;;;;;44.70;20.50;;;8.90;93.70;;;;;;6195312;23;20013;-85
2022/02/03 08:45:05;;;;;;;43.72;21.38;;;8.90;93.70;;;;;;6194409;23;20024;-88
2022/02/03 08:47:31;;;;;;;45.90;20.33;;;8.90;93.70;;;;;;6145786;23;20013;-85
2022/02/03 08:49:56;;;;;;;43.05;21.05;;;8.90;93.70;;;;;;6120604;23;20017;-86
2022/02/03 08:52:35;;;;;;;43.03;21.23;;;8.90;93.70;;;;;;6144929;23;20103;-86
2022/02/03 08:55:09;;;;;;;42.40;20.95;;;8.90;93.60;;;;;;6172123;23;20100;-85
2022/02/03 09:34:39;;;;;;;44.17;23.83;;;8.80;93.40;;;;;;6149840;23;20032;-92
2022/02/03 09:58:16;;;;;;;37.83;22.50;;;8.80;93.50;;;;;;6151940;23;20024;-87
2022/02/03 10:01:05;;;;;;;39.80;22.00;;;8.80;93.50;;;;;;6122663;23;20080;-88
2022/02/03 10:03:39;;;;;;;40.03;21.55;;;8.80;93.50;;;;;;6147047;23;20013;-86
2022/02/03 10:06:11;;;;;;;38.50;21.98;;;8.90;93.40;;;;;;6121932;23;20021;-86
2022/02/03 10:08:37;;;;;;;46.85;22.95;;;8.90;93.50;;;;;;6145910;23;20024;-88
2022/02/03 10:11:16;;;;;;;44.10;23.02;;;8.80;93.40;;;;;;6144969;23;20021;-89
2022/02/03 10:14:02;;;;;;;46.13;25.30;;;8.90;93.40;;;;;;6145100;23;20021;-89
2022/02/03 10:16:35;;;;;;;42.33;24.08;;;8.80;93.30;;;;;;6123286;23;20040;-89
2022/02/03 10:19:05;;;;;;;43.55;24.10;;;8.90;93.40;;;;;;6145289;23;20021;-89
2022/02/03 10:21:30;;;;;;;45.92;24.25;;;8.80;93.30;;;;;;6140894;23;20407;-88
2022/02/03 10:23:59;;;;;;;45.25;25.48;;;8.80;93.30;;;;;;6140847;23;20024;-90
2022/02/03 10:26:40;;;;;;;43.38;24.27;;;8.90;93.30;;;;;;6117995;23;20017;-89
2022/02/03 10:29:09;;;;;;;46.53;25.90;;;8.90;93.30;;;;;;6145687;23;20020;-89
2022/02/03 10:31:42;;;;;;;43.35;23.70;;;8.90;93.30;;;;;;6119942;23;20017;-88
2022/02/03 10:34:11;;;;;;;49.78;26.52;;;8.90;93.20;;;;;;6145441;23;20028;-89
2022/02/03 10:36:42;;;;;;;47.58;24.55;;;8.90;93.30;;;;;;6146340;23;20021;-89
2022/02/03 10:39:26;;;;;;;43.35;24.10;;;8.90;93.30;;;;;;6147698;23;20028;-89
2022/02/03 10:45:23;;;;;;;45.88;25.05;;;8.90;93.20;;;;;;6172565;23;20075;-86
2022/02/03 11:08:19;;;;;;;48.15;25.42;;;8.90;93.70;;;;;;6148382;23;20325;-89
2022/02/03 11:10:50;;;;;;;39.97;22.55;;;9.00;93.40;;;;;;6124053;23;20266;-83
2022/02/03 11:13:16;;;;;;;47.83;22.88;;;8.90;93.40;;;;;;6172403;23;20361;-81
2022/02/03 11:15:42;;;;;;;28.90;16.70;;;8.90;93.50;;;;;;6166288;23;20044;-82
2022/02/03 11:18:08;;;;;;;37.40;21.00;;;9.10;94.00;;;;;;6169527;23;20020;-80
2022/02/03 11:20:39;;;;;;;37.50;22.20;;;9.10;93.80;;;;;;6168042;23;20025;-80
2022/02/03 11:23:23;;;;;;;28.27;17.15;;;9.10;93.60;;;;;;6118236;23;20017;-79
2022/02/03 11:42:10;;;;;;;33.55;19.58;;;9.10;93.80;;;;;;6168661;23;20017;-85
2022/02/03 11:58:12;;;;;;;33.85;19.33;;;9.00;93.90;;;;;;6147022;23;20025;-83
2022/02/03 12:01:33;;;;;;;33.03;18.02;;;8.90;93.90;;;;;;6122595;23;20027;-91
2022/02/03 12:12:39;;;;;;;33.22;20.42;;;8.90;93.90;;;;;;6151696;23;20025;-91
2022/02/03 12:20:28;;;;;;;33.80;19.67;;;8.90;93.90;;;;;;6146157;23;20025;-87
2022/02/03 12:23:04;;;;;;;32.28;20.52;;;8.90;93.90;;;;;;6149510;23;20076;-90
2022/02/03 12:25:47;;;;;;;34.17;18.73;;;8.90;93.90;;;;;;6145944;23;20027;-82
2022/02/03 12:38:52;;;;;;;34.75;19.15;;;9.00;93.70;;;;;;6103100;23;20032;-84
2022/02/03 12:41:32;;;;;;;39.55;22.45;;;9.00;93.70;;;;;;6146422;23;20017;-89
2022/02/03 12:44:04;;;;;;;33.40;19.25;;;9.00;93.80;;;;;;6149886;23;20016;-88
2022/02/03 12:46:30;;;;;;;34.83;19.77;;;9.00;93.80;;;;;;6124790;23;20017;-91
2022/02/03 12:49:00;;;;;;;31.60;19.80;;;9.00;93.80;;;;;;6147215;23;20530;-87
2022/02/03 12:51:26;;;;;;;30.42;17.95;;;9.00;93.80;;;;;;6146287;23;20017;-87
2022/02/03 12:53:54;;;;;;;31.30;18.73;;;9.00;93.80;;;;;;6147542;23;20119;-89
2022/02/03 12:56:24;;;;;;;34.25;19.33;;;9.00;93.80;;;;;;6146992;23;20041;-88
2022/02/03 12:59:00;;;;;;;32.15;18.98;;;9.00;93.80;;;;;;6147068;23;20021;-88
2022/02/03 13:01:32;;;;;;;31.48;18.67;;;9.00;93.80;;;;;;6122609;23;20017;-86
2022/02/03 13:04:09;;;;;;;30.70;18.50;;;9.00;93.80;;;;;;6147036;23;20465;-86
2022/02/03 13:06:39;;;;;;;32.67;18.88;;;9.00;93.80;;;;;;6147714;23;20025;-91
2022/02/03 13:09:08;;;;;;;29.27;17.83;;;9.00;93.80;;;;;;6147140;23;20013;-87
2022/02/03 13:11:49;;;;;;;27.67;16.63;;;9.00;93.90;;;;;;6121611;23;20021;-88
2022/02/03 13:14:34;;;;;;;28.45;17.05;;;9.00;93.80;;;;;;6148995;23;20072;-86
2022/02/03 13:17:12;;;;;;;27.35;15.50;;;9.00;93.90;;;;;;6145558;23;20029;-81
2022/02/03 13:30:30;;;;;;;28.48;17.08;;;9.00;93.80;;;;;;6146092;23;20102;-86
2022/02/03 13:33:02;;;;;;;25.98;15.25;;;9.00;93.80;;;;;;6123012;23;20032;-84
2022/02/03 13:35:42;;;;;;;27.33;14.93;;;9.00;93.80;;;;;;6120865;23;20419;-85
2022/02/03 13:38:19;;;;;;;23.40;14.65;;;9.00;93.80;;;;;;6170118;23;20017;-85
2022/02/03 13:40:45;;;;;;;26.33;15.23;;;8.90;93.80;;;;;;6146812;23;20017;-84
2022/02/03 13:43:13;;;;;;;25.83;15.68;;;8.90;93.80;;;;;;6119445;23;20036;-87
2022/02/03 13:45:43;;;;;;;23.33;13.68;;;8.90;93.80;;;;;;6120439;23;20023;-84
2022/02/03 13:48:19;;;;;;;25.23;14.30;;;9.00;93.90;;;;;;6144883;23;20096;-88
2022/02/03 13:50:54;;;;;;;26.67;15.15;;;9.00;93.90;;;;;;6146105;23;20021;-84
2022/02/03 13:53:25;;;;;;;27.88;15.45;;;8.90;93.90;;;;;;6121549;23;20020;-84
2022/02/03 14:21:19;;;;;;;30.10;17.88;;;9.00;93.90;;;;;;6150036;23;20056;-84
2022/02/03 14:29:18;;;;;;;107.05;61.03;;;8.90;93.90;;;;;;6150630;23;20028;-92
2022/02/03 14:31:47;;;;;;;58.92;34.50;;;8.90;93.90;;;;;;6126253;23;20021;-90
2022/02/03 14:34:22;;;;;;;40.92;23.63;;;8.90;93.90;;;;;;6148461;23;20013;-94
2022/02/03 14:42:57;;;;;;;38.20;21.77;;;8.90;93.90;;;;;;6065687;23;20018;-91
2022/02/03 14:45:23;;;;;;;35.60;21.00;;;8.80;93.90;;;;;;6059835;23;20029;-89
2022/02/03 14:47:52;;;;;;;36.03;20.95;;;8.80;93.90;;;;;;6102623;23;20052;-86
2022/02/03 14:50:19;;;;;;;42.28;23.85;;;8.80;94.00;;;;;;6170189;23;20020;-87
2022/02/03 15:00:45;;;;;;;34.10;20.63;;;8.90;94.00;;;;;;6148898;23;20379;-88
2022/02/03 15:03:12;;;;;;;40.35;23.02;;;8.90;94.00;;;;;;6171636;23;20020;-87
2022/02/03 15:05:39;;;;;;;35.55;21.95;;;8.90;94.00;;;;;;6122605;23;20021;-90
2022/02/03 15:08:32;;;;;;;42.72;22.08;;;8.80;94.00;;;;;;6147032;23;20021;-88
2022/02/03 15:11:10;;;;;;;38.38;23.33;;;8.80;94.00;;;;;;6127544;23;20021;-87
2022/02/03 15:14:09;;;;;;;37.72;21.65;;;8.80;94.10;;;;;;6117313;23;20029;-84
2022/02/03 15:16:28;;;;;;;39.25;21.83;;;8.80;94.10;;;;;;6115097;23;20021;-80
2022/02/03 15:18:54;;;;;;;36.72;19.88;;;8.70;94.10;;;;;;6135881;23;20017;-89
2022/02/03 15:21:22;;;;;;;181.85;111.85;;;8.80;94.70;;;;;;6157031;23;20025;-81
2022/02/03 15:24:06;;;;;;;441.35;246.93;;;9.40;95.40;;;;;;6136018;23;20028;-91
2022/02/03 15:26:36;;;;;;;127.95;68.20;;;9.70;94.70;;;;;;6092405;23;20018;-82
2022/02/03 15:29:04;;;;;;;67.20;37.33;;;9.70;94.00;;;;;;6135791;23;20057;-80
2022/02/03 15:31:32;;;;;;;50.20;28.75;;;9.70;93.80;;;;;;6090014;23;20022;-82
2022/02/03 15:34:21;;;;;;;;;;;;;;;;;;;;;
2022/02/03 15:37:01;;;;;;;28.63;18.23;;;9.50;93.80;;;;;;6118067;23;20022;-83
2022/02/03 15:39:52;;;;;;;30.13;17.73;;;9.40;94.20;;;;;;6093694;23;20070;-91
2022/02/03 15:42:26;;;;;;;28.15;16.77;;;9.30;94.00;;;;;;6117297;23;20014;-90
2022/02/03 15:44:55;;;;;;;28.55;18.58;;;9.20;94.00;;;;;;6094567;23;20063;-90
2022/02/03 16:13:43;;;;;;;30.20;18.20;;;8.80;94.10;;;;;;6145376;23;20021;-83
2022/02/03 16:18:53;;;;;;;28.77;16.95;;;8.70;94.10;;;;;;6147048;23;20021;-82
2022/02/03 16:21:28;;;;;;;28.52;16.73;;;8.70;94.10;;;;;;6167172;23;20044;-80
2022/02/03 16:24:16;;;;;;;187.57;96.32;;;8.70;94.10;;;;;;6139748;23;20017;-80
2022/02/03 16:53:23;;;;;;;33.38;17.65;;;8.40;94.20;;;;;;6141652;23;20028;-82
2022/02/03 16:55:49;;;;;;;30.17;17.67;;;8.50;94.20;;;;;;6140796;23;20348;-83
2022/02/03 16:58:16;;;;;;;31.63;17.52;;;8.40;94.20;;;;;;6164892;23;20069;-83
2022/02/03 17:00:45;;;;;;;32.33;18.58;;;8.40;94.20;;;;;;6116126;23;20079;-88
2022/02/03 17:03:11;;;;;;;34.60;18.85;;;8.40;94.20;;;;;;6167636;23;20028;-84
2022/02/03 17:05:38;;;;;;;34.92;19.08;;;8.40;94.30;;;;;;6140176;23;20017;-83
2022/02/03 17:08:07;;;;;;;33.40;21.17;;;8.40;94.30;;;;;;6141659;23;20031;-84
2022/02/03 17:10:36;;;;;;;34.83;19.60;;;8.40;94.30;;;;;;6138714;23;20080;-84
2022/02/03 17:13:02;;;;;;;36.35;19.90;;;8.30;94.30;;;;;;6164912;23;20025;-84
2022/02/03 17:15:28;;;;;;;34.78;20.42;;;8.30;94.40;;;;;;6139594;23;20028;-83
2022/02/03 17:17:53;;;;;;;36.92;21.63;;;8.30;94.40;;;;;;6141719;23;20017;-83
2022/02/03 17:20:20;;;;;;;40.00;21.85;;;8.30;94.40;;;;;;6118159;23;20021;-86
2022/02/03 17:22:49;;;;;;;45.72;22.73;;;8.30;94.40;;;;;;6137891;23;20020;-79
2022/02/03 17:25:26;;;;;;;37.75;21.67;;;8.30;94.50;;;;;;6142591;23;20024;-82
2022/02/03 17:30:41;;;;;;;37.22;21.92;;;8.30;94.50;;;;;;6165236;23;20031;-90
2022/02/03 18:08:37;;;;;;;202.48;110.82;;;8.10;94.70;;;;;;6137378;23;20018;-81
2022/02/03 18:11:21;;;;;;;96.68;53.50;;;8.10;94.90;;;;;;6140776;23;20057;-80
2022/02/03 18:30:10;;;;;;;55.60;32.10;;;8.10;94.90;;;;;;6150781;23;20332;-87
2022/02/03 18:46:38;;;;;;;60.20;31.13;;;8.10;95.10;;;;;;6144416;23;20072;-85
2022/02/03 18:51:05;;;;;;;59.53;31.38;;;8.10;95.10;;;;;;6144061;23;20035;-88
2022/02/03 18:53:37;;;;;;;56.90;32.13;;;8.10;95.10;;;;;;6096684;23;20057;-88
2022/02/03 18:58:44;;;;;;;58.45;32.38;;;8.10;95.10;;;;;;6143356;23;20056;-88
2022/02/03 20:04:36;;;;;;;75.20;37.85;;;8.70;94.80;;;;;;6144284;23;20056;-85
2022/02/03 20:12:22;;;;;;;73.38;38.35;;;8.50;94.90;;;;;;6141448;23;20081;-84
2022/02/03 20:14:49;;;;;;;69.82;37.85;;;8.50;94.90;;;;;;6135495;23;20013;-84
2022/02/03 20:17:19;;;;;;;66.95;37.22;;;8.40;95.00;;;;;;6087724;23;20070;-84
2022/02/03 20:19:46;;;;;;;75.65;37.42;;;8.40;95.00;;;;;;6136445;23;20047;-87
2022/02/03 20:22:12;;;;;;;69.05;39.45;;;8.30;95.10;;;;;;6111155;23;20052;-83
2022/02/03 20:24:37;;;;;;;69.43;35.85;;;8.30;95.10;;;;;;6135831;23;20089;-83
2022/02/03 20:27:03;;;;;;;73.78;37.97;;;8.30;95.10;;;;;;6136696;23;20032;-86
2022/02/03 20:29:29;;;;;;;68.28;36.47;;;8.30;95.20;;;;;;6111256;23;20101;-83
2022/02/03 20:31:55;;;;;;;78.50;39.30;;;8.30;95.20;;;;;;6110842;23;20040;-85
2022/02/03 20:34:22;;;;;;;72.30;39.63;;;8.20;95.10;;;;;;6160449;23;20091;-81
2022/02/03 20:36:48;;;;;;;72.40;39.10;;;8.20;95.20;;;;;;6133112;23;20021;-85
2022/02/03 20:39:13;;;;;;;75.68;39.03;;;8.20;95.20;;;;;;6155580;23;20025;-87
2022/02/03 20:41:39;;;;;;;78.63;39.58;;;8.20;95.20;;;;;;6132949;23;20075;-86
2022/02/03 20:44:05;;;;;;;71.63;39.00;;;8.20;95.20;;;;;;6086017;23;20017;-85
2022/02/03 20:46:32;;;;;;;77.60;40.97;;;8.20;95.20;;;;;;6111439;23;20059;-83
2022/02/03 20:48:58;;;;;;;80.25;40.72;;;8.10;95.20;;;;;;6111642;23;20017;-81
2022/02/03 20:51:26;;;;;;;75.80;40.20;;;8.10;95.20;;;;;;6111632;23;20022;-87
2022/02/03 20:53:52;;;;;;;75.40;39.58;;;8.10;95.20;;;;;;6088386;23;20021;-85
2022/02/03 20:56:18;;;;;;;73.82;39.88;;;8.10;95.20;;;;;;6088561;23;20077;-83
2022/02/03 20:58:48;;;;;;;74.55;40.33;;;8.10;95.20;;;;;;6136586;23;20021;-84
2022/02/03 21:01:24;;;;;;;76.20;40.53;;;8.10;95.30;;;;;;6087461;23;20036;-83
2022/02/03 21:03:50;;;;;;;76.00;39.90;;;8.20;95.30;;;;;;6088368;23;20028;-80
2022/02/03 21:06:17;;;;;;;76.32;38.13;;;8.10;95.20;;;;;;6160152;23;20376;-84
2022/02/03 21:08:46;;;;;;;76.15;38.00;;;8.20;95.30;;;;;;6111611;23;20024;-85
2022/02/03 21:11:12;;;;;;;77.10;39.90;;;8.10;95.30;;;;;;6135837;23;20013;-83
2022/02/03 21:13:38;;;;;;;79.20;42.33;;;8.20;95.30;;;;;;6147930;23;20502;-85
2022/02/03 21:16:06;;;;;;;75.43;40.13;;;8.10;95.20;;;;;;6140739;23;20326;-84
2022/02/03 21:18:36;;;;;;;72.70;38.83;;;8.10;95.20;;;;;;6140560;23;20025;-90
2022/02/03 21:21:01;;;;;;;70.60;39.25;;;8.10;95.40;;;;;;6165366;23;20021;-86
2022/02/03 21:23:27;;;;;;;77.90;42.08;;;8.10;95.30;;;;;;6116540;23;20025;-85
2022/02/03 21:25:55;;;;;;;75.90;38.20;;;8.10;95.30;;;;;;6142143;23;20056;-83
2022/02/03 21:28:25;;;;;;;78.57;38.40;;;8.10;95.20;;;;;;6117746;23;20021;-84
2022/02/03 21:30:51;;;;;;;77.18;38.88;;;8.10;95.30;;;;;;6117942;23;20078;-84
2022/02/03 21:33:23;;;;;;;71.32;37.78;;;8.10;95.20;;;;;;6116664;23;20456;-82
2022/02/03 21:35:49;;;;;;;68.43;37.92;;;8.10;95.30;;;;;;6142781;23;20023;-84
2022/02/03 21:38:16;;;;;;;75.35;39.42;;;8.10;95.20;;;;;;6117239;23;20024;-85
2022/02/03 21:40:41;;;;;;;71.75;38.83;;;8.10;95.20;;;;;;6142735;23;20067;-85
2022/02/03 21:43:07;;;;;;;72.95;38.40;;;8.10;95.20;;;;;;6141675;23;20041;-86
2022/02/03 21:45:33;;;;;;;71.15;38.15;;;8.00;95.20;;;;;;6141586;23;20016;-84
2022/02/03 21:48:01;;;;;;;72.80;38.15;;;8.00;95.20;;;;;;6165919;23;20017;-85
2022/02/03 21:50:34;;;;;;;74.85;39.20;;;8.00;95.20;;;;;;6117727;23;20024;-84
2022/02/03 21:53:02;;;;;;;73.00;38.53;;;8.00;95.20;;;;;;6143215;23;20021;-85
2022/02/03 21:55:32;;;;;;;76.32;39.67;;;8.00;95.20;;;;;;6142803;23;20026;-85
2022/02/03 21:57:57;;;;;;;73.43;37.42;;;8.00;95.20;;;;;;6119062;23;20028;-89
2022/02/03 22:00:23;;;;;;;68.25;37.97;;;8.00;95.20;;;;;;6117555;23;20394;-84
2022/02/03 22:02:49;;;;;;;74.03;38.35;;;8.00;95.20;;;;;;6141852;23;20017;-84
2022/02/03 22:05:15;;;;;;;69.72;38.28;;;8.00;95.20;;;;;;6166485;23;20140;-84
2022/02/03 22:07:42;;;;;;;67.05;37.38;;;8.00;95.20;;;;;;6166888;23;20025;-86
2022/02/03 22:10:12;;;;;;;73.10;38.60;;;8.00;95.20;;;;;;6142465;23;20028;-86
2022/02/03 22:12:37;;;;;;;70.03;37.50;;;8.00;95.20;;;;;;6118348;23;20019;-85
2022/02/03 22:15:04;;;;;;;69.82;38.80;;;8.00;95.20;;;;;;6144360;23;20024;-86
2022/02/03 22:17:32;;;;;;;68.85;37.83;;;8.00;95.20;;;;;;6143805;23;20018;-89
2022/02/03 22:20:06;;;;;;;73.53;38.97;;;7.90;95.10;;;;;;6149992;23;20021;-90
2022/02/03 22:22:44;;;;;;;75.35;39.42;;;8.00;95.20;;;;;;6143486;23;20020;-83
2022/02/03 22:25:36;;;;;;;71.80;39.65;;;8.00;95.20;;;;;;6142801;23;20021;-84
2022/02/03 22:49:05;;;;;;;69.82;36.28;;;7.90;95.10;;;;;;6192232;23;20341;-89
2022/02/03 22:51:34;;;;;;;71.72;36.53;;;7.90;95.10;;;;;;6168640;23;20013;-89
2022/02/03 22:54:05;;;;;;;70.18;35.33;;;7.90;95.10;;;;;;6168353;23;20031;-91
2022/02/03 22:56:30;;;;;;;68.22;36.42;;;7.90;95.10;;;;;;6169703;23;20017;-91
2022/02/03 23:01:24;;;;;;;64.93;35.17;;;7.90;95.10;;;;;;6143887;23;20031;-89
2022/02/03 23:03:50;;;;;;;72.40;36.70;;;7.90;95.10;;;;;;6142561;23;20468;-81
2022/02/03 23:06:16;;;;;;;70.97;36.08;;;7.90;95.10;;;;;;6143603;23;20317;-83
2022/02/03 23:16:45;;;;;;;68.57;35.40;;;7.90;95.10;;;;;;6146588;23;20017;-82
2022/02/03 23:22:14;;;;;;;72.40;36.25;;;7.90;95.10;;;;;;6145976;23;20024;-81
2022/02/03 23:24:42;;;;;;;67.57;35.17;;;7.90;95.10;;;;;;6146089;23;20019;-81
2022/02/03 23:27:33;;;;;;;63.85;34.30;;;7.80;95.10;;;;;;6142410;23;20021;-81
2022/02/03 23:29:54;;;;;;;67.53;35.80;;;7.90;95.10;;;;;;6144668;23;20028;-81
2022/02/03 23:32:21;;;;;;;68.15;35.72;;;7.90;95.10;;;;;;6166677;23;20013;-81
2022/02/03 23:34:54;;;;;;;74.35;35.97;;;7.90;95.10;;;;;;6141513;23;20025;-81
2022/02/03 23:37:20;;;;;;;69.45;33.40;;;7.80;95.10;;;;;;6143656;23;20048;-81
